createdAt,value
2018-09-09T00:00:36.330Z,0.00
2018-09-09T00:01:36.308Z,0.00
2018-09-09T00:02:36.357Z,0.00
2018-09-09T00:03:36.296Z,0.00
2018-09-09T00:04:36.276Z,0.00
2018-09-09T00:05:36.281Z,0.00
2018-09-09T00:06:36.263Z,0.00
2018-09-09T00:07:36.295Z,0.00
2018-09-09T00:08:36.241Z,0.00
2018-09-09T00:09:36.232Z,0.00
2018-09-09T00:10:36.222Z,0.00
2018-09-09T00:11:36.211Z,0.00
2018-09-09T00:12:36.236Z,0.00
2018-09-09T00:13:36.188Z,0.00
2018-09-09T00:14:36.167Z,0.00
2018-09-09T00:15:36.166Z,0.00
2018-09-09T00:16:36.149Z,0.00
2018-09-09T00:17:36.187Z,0.00
2018-09-09T00:18:36.120Z,0.00
2018-09-09T00:19:36.109Z,0.00
2018-09-09T00:20:36.103Z,0.00
2018-09-09T00:21:36.086Z,0.00
2018-09-09T00:22:36.213Z,0.00
2018-09-09T00:23:36.068Z,0.00
2018-09-09T00:24:36.044Z,0.00
2018-09-09T00:25:36.038Z,0.00
2018-09-09T00:26:36.032Z,0.00
2018-09-09T00:27:36.050Z,0.00
2018-09-09T00:28:36.007Z,0.00
2018-09-09T00:29:36.036Z,0.00
2018-09-09T00:30:35.982Z,0.00
2018-09-09T00:31:35.971Z,0.00
2018-09-09T00:32:35.965Z,0.00
2018-09-09T00:33:35.974Z,0.00
2018-09-09T00:34:35.936Z,0.00
2018-09-09T00:35:35.926Z,0.00
2018-09-09T00:36:35.916Z,0.00
2018-09-09T00:37:35.943Z,0.00
2018-09-09T00:38:35.888Z,0.00
2018-09-09T00:39:35.906Z,0.00
2018-09-09T00:40:35.870Z,0.00
2018-09-09T00:41:35.856Z,0.00
2018-09-09T00:42:35.847Z,0.00
2018-09-09T00:43:35.836Z,0.00
2018-09-09T00:44:35.852Z,0.00
2018-09-09T00:45:35.815Z,0.00
2018-09-09T00:46:35.809Z,0.00
2018-09-09T00:47:35.792Z,0.00
2018-09-09T00:48:35.810Z,0.00
2018-09-09T00:49:35.780Z,0.00
2018-09-09T00:50:35.803Z,0.00
2018-09-09T00:51:35.753Z,0.00
2018-09-09T00:52:35.746Z,0.00
2018-09-09T00:53:35.734Z,0.00
2018-09-09T00:54:35.726Z,0.00
2018-09-09T00:55:35.768Z,0.00
2018-09-09T00:56:35.696Z,0.00
2018-09-09T00:57:35.686Z,0.00
2018-09-09T00:58:35.673Z,0.00
2018-09-09T00:59:35.664Z,0.00
2018-09-09T01:00:35.697Z,0.00
2018-09-09T01:01:35.639Z,0.00
2018-09-09T01:02:35.672Z,0.00
2018-09-09T01:03:35.614Z,0.00
2018-09-09T01:04:35.608Z,0.00
2018-09-09T01:05:35.626Z,0.00
2018-09-09T01:06:35.602Z,0.00
2018-09-09T01:07:35.609Z,0.00
2018-09-09T01:08:35.563Z,0.00
2018-09-09T01:09:35.551Z,0.00
2018-09-09T01:10:35.543Z,0.00
2018-09-09T01:11:35.566Z,0.00
2018-09-09T01:12:35.516Z,0.00
2018-09-09T01:13:35.514Z,0.00
2018-09-09T01:14:35.494Z,0.00
2018-09-09T01:15:35.481Z,0.00
2018-09-09T01:16:35.547Z,0.00
2018-09-09T01:17:35.471Z,0.00
2018-09-09T01:18:35.461Z,0.00
2018-09-09T01:19:35.440Z,0.00
2018-09-09T01:20:35.429Z,0.00
2018-09-09T01:21:35.452Z,0.00
2018-09-09T01:22:35.396Z,0.00
2018-09-09T01:23:35.390Z,0.00
2018-09-09T01:24:35.370Z,0.00
2018-09-09T01:25:35.364Z,0.00
2018-09-09T01:26:35.398Z,0.00
2018-09-09T01:27:35.351Z,0.00
2018-09-09T01:28:35.332Z,0.00
2018-09-09T01:29:35.311Z,0.00
2018-09-09T01:30:35.309Z,0.00
2018-09-09T01:31:35.342Z,0.00
2018-09-09T01:32:35.280Z,0.00
2018-09-09T01:33:35.273Z,0.00
2018-09-09T01:34:35.259Z,0.00
2018-09-09T01:35:35.253Z,0.00
2018-09-09T01:36:35.268Z,0.00
2018-09-09T01:37:35.229Z,0.00
2018-09-09T01:38:35.256Z,0.00
2018-09-09T01:39:35.204Z,0.00
2018-09-09T01:40:35.204Z,0.00
2018-09-09T01:41:35.180Z,0.00
2018-09-09T01:42:35.177Z,0.00
2018-09-09T01:43:35.205Z,0.00
2018-09-09T01:44:35.144Z,0.00
2018-09-09T01:45:35.138Z,0.00
2018-09-09T01:46:35.129Z,0.00
2018-09-09T01:47:35.109Z,0.00
2018-09-09T01:48:35.142Z,0.00
2018-09-09T01:49:35.132Z,0.00
2018-09-09T01:50:35.086Z,0.00
2018-09-09T01:51:35.069Z,0.00
2018-09-09T01:52:35.058Z,0.00
2018-09-09T01:53:35.078Z,0.00
2018-09-09T01:54:35.076Z,0.00
2018-09-09T01:55:35.069Z,0.00
2018-09-09T01:56:35.026Z,0.00
2018-09-09T01:57:35.014Z,0.00
2018-09-09T01:58:35.002Z,0.00
2018-09-09T01:59:35.030Z,0.00
2018-09-09T02:00:34.974Z,0.00
2018-09-09T02:01:34.979Z,0.00
2018-09-09T02:02:34.956Z,0.00
2018-09-09T02:03:34.949Z,0.00
2018-09-09T02:04:34.987Z,0.00
2018-09-09T02:05:34.932Z,0.00
2018-09-09T02:06:34.918Z,0.00
2018-09-09T02:07:34.905Z,0.00
2018-09-09T02:08:34.884Z,0.00
2018-09-09T02:09:34.920Z,0.00
2018-09-09T02:10:34.866Z,0.00
2018-09-09T02:11:34.891Z,0.00
2018-09-09T02:12:34.849Z,0.00
2018-09-09T02:13:34.830Z,0.00
2018-09-09T02:14:34.824Z,0.00
2018-09-09T02:15:34.816Z,0.00
2018-09-09T02:16:34.872Z,0.00
2018-09-09T02:17:34.788Z,0.00
2018-09-09T02:18:34.774Z,0.00
2018-09-09T02:19:34.799Z,0.00
2018-09-09T02:20:34.769Z,0.00
2018-09-09T02:21:34.773Z,0.00
2018-09-09T02:22:34.749Z,0.00
2018-09-09T02:23:34.728Z,0.00
2018-09-09T02:24:34.724Z,0.00
2018-09-09T02:25:34.742Z,0.00
2018-09-09T02:26:34.724Z,0.00
2018-09-09T02:27:34.685Z,0.00
2018-09-09T02:28:34.657Z,0.00
2018-09-09T02:29:34.663Z,0.00
2018-09-09T02:30:34.628Z,0.00
2018-09-09T02:31:34.656Z,0.00
2018-09-09T02:32:34.664Z,0.00
2018-09-09T02:33:34.626Z,0.00
2018-09-09T02:34:34.594Z,0.00
2018-09-09T02:35:34.578Z,0.00
2018-09-09T02:36:34.574Z,0.00
2018-09-09T02:37:34.619Z,0.00
2018-09-09T02:38:34.551Z,0.00
2018-09-09T02:39:34.553Z,0.00
2018-09-09T02:40:34.537Z,0.00
2018-09-09T02:41:34.512Z,0.00
2018-09-09T02:42:34.532Z,0.00
2018-09-09T02:43:34.547Z,0.00
2018-09-09T02:44:34.485Z,0.00
2018-09-09T02:45:34.479Z,0.00
2018-09-09T02:46:34.502Z,0.00
2018-09-09T02:47:34.471Z,0.00
2018-09-09T02:48:34.467Z,0.00
2018-09-09T02:49:34.432Z,0.00
2018-09-09T02:50:34.416Z,0.00
2018-09-09T02:51:34.395Z,0.00
2018-09-09T02:52:34.432Z,0.00
2018-09-09T02:53:34.385Z,0.00
2018-09-09T02:54:34.371Z,0.00
2018-09-09T02:55:34.354Z,0.00
2018-09-09T02:56:34.354Z,0.00
2018-09-09T02:57:34.370Z,0.00
2018-09-09T02:58:34.340Z,0.00
2018-09-09T02:59:34.335Z,0.00
2018-09-09T03:00:34.353Z,0.00
2018-09-09T03:01:34.299Z,0.00
2018-09-09T03:02:34.317Z,0.00
2018-09-09T03:03:34.276Z,0.00
2018-09-09T03:04:34.300Z,0.00
2018-09-09T03:05:34.255Z,0.00
2018-09-09T03:06:34.249Z,0.00
2018-09-09T03:07:34.233Z,0.00
2018-09-09T03:08:34.260Z,0.00
2018-09-09T03:09:34.205Z,0.00
2018-09-09T03:10:34.253Z,0.00
2018-09-09T03:11:34.197Z,0.00
2018-09-09T03:12:34.198Z,0.00
2018-09-09T03:13:34.208Z,0.00
2018-09-09T03:14:34.146Z,0.00
2018-09-09T03:15:34.147Z,0.00
2018-09-09T03:16:34.140Z,0.00
2018-09-09T03:17:34.111Z,0.00
2018-09-09T03:18:34.137Z,0.00
2018-09-09T03:19:34.114Z,0.00
2018-09-09T03:20:34.095Z,0.00
2018-09-09T03:21:34.074Z,0.00
2018-09-09T03:22:34.099Z,0.00
2018-09-09T03:23:34.056Z,0.00
2018-09-09T03:24:34.052Z,0.00
2018-09-09T03:25:34.023Z,0.00
2018-09-09T03:26:34.022Z,0.00
2018-09-09T03:27:34.041Z,0.00
2018-09-09T03:28:34.044Z,0.00
2018-09-09T03:29:34.007Z,0.00
2018-09-09T03:30:33.979Z,0.00
2018-09-09T03:31:33.953Z,0.00
2018-09-09T03:32:33.943Z,0.00
2018-09-09T03:33:33.934Z,0.00
2018-09-09T03:34:33.961Z,0.00
2018-09-09T03:35:33.897Z,0.00
2018-09-09T03:36:33.938Z,0.00
2018-09-09T03:37:33.887Z,0.00
2018-09-09T03:38:33.875Z,0.00
2018-09-09T03:39:33.859Z,0.00
2018-09-09T03:40:33.887Z,0.00
2018-09-09T03:41:33.867Z,0.00
2018-09-09T03:42:33.822Z,0.00
2018-09-09T03:43:33.853Z,0.00
2018-09-09T03:44:33.817Z,0.00
2018-09-09T03:45:33.796Z,0.00
2018-09-09T03:46:33.789Z,0.00
2018-09-09T03:47:33.767Z,0.00
2018-09-09T03:48:33.814Z,0.00
2018-09-09T03:49:33.799Z,0.00
2018-09-09T03:50:33.793Z,0.00
2018-09-09T03:51:33.733Z,0.00
2018-09-09T03:52:33.711Z,0.00
2018-09-09T03:53:33.702Z,0.00
2018-09-09T03:54:33.683Z,0.00
2018-09-09T03:55:33.707Z,0.00
2018-09-09T03:56:33.689Z,0.00
2018-09-09T03:57:33.677Z,0.00
2018-09-09T03:58:33.658Z,0.00
2018-09-09T03:59:33.635Z,0.00
2018-09-09T04:00:33.667Z,0.00
2018-09-09T04:01:33.625Z,4.00
2018-09-09T04:02:33.615Z,4.00
2018-09-09T04:03:33.600Z,0.00
2018-09-09T04:04:33.596Z,4.00
2018-09-09T04:05:33.621Z,4.00
2018-09-09T04:06:33.561Z,8.00
2018-09-09T04:07:33.554Z,4.00
2018-09-09T04:08:33.548Z,8.00
2018-09-09T04:09:33.534Z,8.00
2018-09-09T04:10:33.590Z,8.00
2018-09-09T04:11:33.500Z,12.00
2018-09-09T04:12:33.492Z,12.00
2018-09-09T04:13:33.490Z,16.00
2018-09-09T04:14:33.470Z,20.00
2018-09-09T04:15:33.510Z,24.00
2018-09-09T04:16:33.447Z,24.00
2018-09-09T04:17:33.435Z,24.00
2018-09-09T04:18:33.417Z,32.00
2018-09-09T04:19:33.409Z,40.00
2018-09-09T04:20:33.433Z,44.00
2018-09-09T04:21:33.425Z,48.00
2018-09-09T04:22:33.374Z,52.00
2018-09-09T04:23:33.367Z,64.00
2018-09-09T04:24:33.365Z,68.00
2018-09-09T04:25:33.343Z,76.00
2018-09-09T04:26:33.356Z,88.00
2018-09-09T04:27:33.313Z,96.00
2018-09-09T04:28:33.331Z,108.00
2018-09-09T04:29:33.289Z,116.00
2018-09-09T04:30:33.292Z,132.00
2018-09-09T04:31:33.316Z,144.00
2018-09-09T04:32:33.278Z,160.00
2018-09-09T04:33:33.245Z,172.00
2018-09-09T04:34:33.252Z,188.00
2018-09-09T04:35:33.248Z,204.00
2018-09-09T04:36:33.264Z,224.00
2018-09-09T04:37:33.212Z,240.00
2018-09-09T04:38:33.236Z,260.00
2018-09-09T04:39:33.194Z,276.00
2018-09-09T04:40:33.188Z,296.00
2018-09-09T04:41:33.176Z,320.00
2018-09-09T04:42:33.190Z,336.00
2018-09-09T04:43:33.148Z,360.00
2018-09-09T04:44:33.150Z,384.00
2018-09-09T04:45:33.126Z,408.00
2018-09-09T04:46:33.108Z,436.00
2018-09-09T04:47:33.150Z,460.00
2018-09-09T04:48:33.092Z,488.00
2018-09-09T04:49:33.082Z,516.00
2018-09-09T04:50:33.064Z,544.00
2018-09-09T04:51:33.054Z,572.00
2018-09-09T04:52:33.080Z,604.00
2018-09-09T04:53:33.027Z,640.00
2018-09-09T04:54:33.068Z,672.00
2018-09-09T04:55:33.018Z,700.00
2018-09-09T04:56:32.998Z,732.00
2018-09-09T04:57:33.000Z,760.00
2018-09-09T04:58:33.008Z,784.00
2018-09-09T04:59:33.004Z,812.00
2018-09-09T05:00:32.970Z,840.00
2018-09-09T05:01:32.942Z,868.00
2018-09-09T05:02:32.934Z,892.00
2018-09-09T05:03:32.929Z,912.00
2018-09-09T05:04:32.954Z,932.00
2018-09-09T05:05:32.944Z,952.00
2018-09-09T05:06:32.885Z,964.00
2018-09-09T05:07:32.864Z,980.00
2018-09-09T05:08:32.860Z,1008.00
2018-09-09T05:09:32.845Z,1036.00
2018-09-09T05:10:32.867Z,1052.00
2018-09-09T05:11:32.823Z,1080.00
2018-09-09T05:12:32.824Z,1104.00
2018-09-09T05:13:32.806Z,1148.00
2018-09-09T05:14:32.801Z,1200.00
2018-09-09T05:15:32.817Z,1268.00
2018-09-09T05:16:32.769Z,1348.00
2018-09-09T05:17:32.763Z,1432.00
2018-09-09T05:18:32.739Z,1520.00
2018-09-09T05:19:32.773Z,1600.00
2018-09-09T05:20:32.779Z,1688.00
2018-09-09T05:21:32.757Z,1780.00
2018-09-09T05:22:32.707Z,1876.00
2018-09-09T05:23:32.706Z,1992.00
2018-09-09T05:24:32.723Z,2124.00
2018-09-09T05:25:32.695Z,2268.00
2018-09-09T05:26:32.657Z,2480.00
2018-09-09T05:27:32.654Z,2692.00
2018-09-09T05:28:32.668Z,2912.00
2018-09-09T05:29:32.640Z,3144.00
2018-09-09T05:30:32.675Z,3284.00
2018-09-09T05:31:32.606Z,3344.00
2018-09-09T05:32:32.599Z,3396.00
2018-09-09T05:33:32.579Z,3436.00
2018-09-09T05:34:32.576Z,3460.00
2018-09-09T05:35:32.601Z,3468.00
2018-09-09T05:36:32.545Z,3424.00
2018-09-09T05:37:32.545Z,3288.00
2018-09-09T05:38:32.537Z,3232.00
2018-09-09T05:39:32.525Z,3196.00
2018-09-09T05:40:32.539Z,3156.00
2018-09-09T05:41:32.516Z,3140.00
2018-09-09T05:42:32.518Z,2992.00
2018-09-09T05:43:32.513Z,2824.00
2018-09-09T05:44:32.525Z,2688.00
2018-09-09T05:45:32.448Z,2656.00
2018-09-09T05:46:32.447Z,2764.00
2018-09-09T05:47:32.476Z,2976.00
2018-09-09T05:48:32.423Z,3240.00
2018-09-09T05:49:32.436Z,3668.00
2018-09-09T05:50:32.402Z,4320.00
2018-09-09T05:51:32.402Z,5036.00
2018-09-09T05:52:32.415Z,6972.00
2018-09-09T05:53:32.378Z,6372.00
2018-09-09T05:54:32.381Z,6216.00
2018-09-09T05:55:32.335Z,6180.00
2018-09-09T05:56:32.335Z,6292.00
2018-09-09T05:57:32.389Z,6220.00
2018-09-09T05:58:32.347Z,10968.00
2018-09-09T05:59:32.359Z,13148.00
2018-09-09T06:00:32.334Z,13204.00
2018-09-09T06:01:32.294Z,7792.00
2018-09-09T06:02:32.413Z,6036.00
2018-09-09T06:03:32.284Z,4472.00
2018-09-09T06:04:32.284Z,4212.00
2018-09-09T06:05:32.254Z,4204.00
2018-09-09T06:06:32.237Z,4252.00
2018-09-09T06:07:32.251Z,4664.00
2018-09-09T06:08:32.263Z,4624.00
2018-09-09T06:09:32.241Z,4572.00
2018-09-09T06:10:32.227Z,4564.00
2018-09-09T06:11:32.156Z,4572.00
2018-09-09T06:12:32.159Z,4548.00
2018-09-09T06:13:32.166Z,4632.00
2018-09-09T06:14:32.151Z,4832.00
2018-09-09T06:15:32.108Z,5132.00
2018-09-09T06:16:32.128Z,5612.00
2018-09-09T06:17:32.097Z,6304.00
2018-09-09T06:18:32.130Z,7132.00
2018-09-09T06:19:32.073Z,8008.00
2018-09-09T06:20:32.052Z,7924.00
2018-09-09T06:21:32.045Z,8656.00
2018-09-09T06:22:32.050Z,11096.00
2018-09-09T06:23:32.059Z,9604.00
2018-09-09T06:24:32.111Z,11284.00
2018-09-09T06:25:32.048Z,8132.00
2018-09-09T06:26:32.056Z,7620.00
2018-09-09T06:27:32.072Z,7640.00
2018-09-09T06:28:32.035Z,7892.00
2018-09-09T06:29:32.076Z,8432.00
2018-09-09T06:30:31.955Z,9392.00
2018-09-09T06:31:31.969Z,8960.00
2018-09-09T06:32:31.947Z,8108.00
2018-09-09T06:33:31.918Z,8520.00
2018-09-09T06:34:31.971Z,9596.00
2018-09-09T06:35:31.895Z,9360.00
2018-09-09T06:36:31.869Z,8712.00
2018-09-09T06:37:31.853Z,10128.00
2018-09-09T06:38:31.857Z,8764.00
2018-09-09T06:39:31.897Z,9372.00
2018-09-09T06:40:31.829Z,9076.00
2018-09-09T06:41:31.809Z,9392.00
2018-09-09T06:42:31.809Z,9184.00
2018-09-09T06:43:31.797Z,9084.00
2018-09-09T06:44:31.831Z,9348.00
2018-09-09T06:45:31.775Z,9320.00
2018-09-09T06:46:31.886Z,9392.00
2018-09-09T06:47:31.753Z,9480.00
2018-09-09T06:48:31.751Z,9828.00
2018-09-09T06:49:31.763Z,9608.00
2018-09-09T06:50:31.721Z,9336.00
2018-09-09T06:51:31.743Z,9068.00
2018-09-09T06:52:31.705Z,8832.00
2018-09-09T06:53:31.696Z,8600.00
2018-09-09T06:54:31.675Z,8528.00
2018-09-09T06:55:31.769Z,8592.00
2018-09-09T06:56:31.651Z,8696.00
2018-09-09T06:57:31.648Z,8796.00
2018-09-09T06:58:31.630Z,9064.00
2018-09-09T06:59:31.621Z,9232.00
2018-09-09T07:00:31.659Z,9352.00
2018-09-09T07:01:31.596Z,9676.00
2018-09-09T07:02:31.608Z,9772.00
2018-09-09T07:03:31.582Z,10064.00
2018-09-09T07:04:31.560Z,9848.00
2018-09-09T07:05:31.586Z,9876.00
2018-09-09T07:06:31.538Z,9636.00
2018-09-09T07:07:31.527Z,9492.00
2018-09-09T07:08:31.526Z,9348.00
2018-09-09T07:09:31.507Z,9348.00
2018-09-09T07:10:31.546Z,9120.00
2018-09-09T07:11:31.544Z,8572.00
2018-09-09T07:12:31.478Z,8448.00
2018-09-09T07:13:31.458Z,7960.00
2018-09-09T07:14:31.446Z,7848.00
2018-09-09T07:15:31.470Z,8024.00
2018-09-09T07:16:31.458Z,8180.00
2018-09-09T07:17:31.419Z,8048.00
2018-09-09T07:18:31.395Z,8284.00
2018-09-09T07:19:31.399Z,8380.00
2018-09-09T07:20:31.376Z,8852.00
2018-09-09T07:21:31.398Z,10000.00
2018-09-09T07:22:31.368Z,10792.00
2018-09-09T07:23:31.347Z,11084.00
2018-09-09T07:24:31.331Z,11236.00
2018-09-09T07:25:31.322Z,13952.00
2018-09-09T07:26:31.352Z,14284.00
2018-09-09T07:27:31.341Z,17536.00
2018-09-09T07:28:31.352Z,11684.00
2018-09-09T07:29:31.277Z,10260.00
2018-09-09T07:30:31.263Z,9532.00
2018-09-09T07:31:31.257Z,9164.00
2018-09-09T07:32:31.289Z,9048.00
2018-09-09T07:33:31.234Z,7780.00
2018-09-09T07:34:31.221Z,7852.00
2018-09-09T07:35:31.215Z,7916.00
2018-09-09T07:36:31.229Z,8328.00
2018-09-09T07:37:31.231Z,9292.00
2018-09-09T07:38:31.186Z,11048.00
2018-09-09T07:39:31.165Z,12344.00
2018-09-09T07:40:31.156Z,13304.00
2018-09-09T07:41:31.149Z,14736.00
2018-09-09T07:42:31.182Z,14720.00
2018-09-09T07:43:31.127Z,15568.00
2018-09-09T07:44:31.115Z,15504.00
2018-09-09T07:45:31.094Z,15912.00
2018-09-09T07:46:31.177Z,15344.00
2018-09-09T07:47:31.127Z,14936.00
2018-09-09T07:48:31.075Z,14816.00
2018-09-09T07:49:31.064Z,14604.00
2018-09-09T07:50:31.056Z,14184.00
2018-09-09T07:51:31.038Z,14388.00
2018-09-09T07:52:31.066Z,14724.00
2018-09-09T07:53:31.062Z,15384.00
2018-09-09T07:54:31.013Z,15832.00
2018-09-09T07:55:30.996Z,14944.00
2018-09-09T07:56:30.980Z,14104.00
2018-09-09T07:57:30.972Z,14292.00
2018-09-09T07:58:30.992Z,15368.00
2018-09-09T07:59:30.968Z,16704.00
2018-09-09T08:00:30.979Z,17056.00
2018-09-09T08:01:30.932Z,17408.00
2018-09-09T08:02:30.922Z,18080.00
2018-09-09T08:03:30.942Z,18176.00
2018-09-09T08:04:30.922Z,18016.00
2018-09-09T08:05:30.894Z,17056.00
2018-09-09T08:06:30.909Z,16316.00
2018-09-09T08:07:30.863Z,15960.00
2018-09-09T08:08:30.927Z,16212.00
2018-09-09T08:09:30.844Z,16896.00
2018-09-09T08:10:30.832Z,17728.00
2018-09-09T08:11:30.818Z,18528.00
2018-09-09T08:12:30.810Z,19136.00
2018-09-09T08:13:30.840Z,19296.00
2018-09-09T08:14:30.784Z,19264.00
2018-09-09T08:15:30.782Z,18496.00
2018-09-09T08:16:30.770Z,19136.00
2018-09-09T08:17:30.744Z,19360.00
2018-09-09T08:18:30.854Z,18880.00
2018-09-09T08:19:30.723Z,19136.00
2018-09-09T08:20:30.707Z,19904.00
2018-09-09T08:21:30.705Z,19712.00
2018-09-09T08:22:30.690Z,19744.00
2018-09-09T08:23:30.726Z,20960.00
2018-09-09T08:24:30.713Z,20256.00
2018-09-09T08:25:30.651Z,21600.00
2018-09-09T08:26:30.647Z,20864.00
2018-09-09T08:27:30.631Z,21984.00
2018-09-09T08:28:30.623Z,21312.00
2018-09-09T08:29:30.653Z,23104.00
2018-09-09T08:30:30.597Z,22240.00
2018-09-09T08:31:30.593Z,22144.00
2018-09-09T08:32:30.573Z,21632.00
2018-09-09T08:33:30.569Z,20544.00
2018-09-09T08:34:30.592Z,20032.00
2018-09-09T08:35:30.588Z,19872.00
2018-09-09T08:36:30.542Z,19808.00
2018-09-09T08:37:30.531Z,20128.00
2018-09-09T08:38:30.522Z,21024.00
2018-09-09T08:39:30.559Z,22208.00
2018-09-09T08:40:30.498Z,23264.00
2018-09-09T08:41:30.509Z,23936.00
2018-09-09T08:42:30.474Z,24576.00
2018-09-09T08:43:30.454Z,24832.00
2018-09-09T08:44:31.065Z,24896.00
2018-09-09T08:45:30.459Z,23936.00
2018-09-09T08:46:30.483Z,23872.00
2018-09-09T08:47:30.411Z,21184.00
2018-09-09T08:48:30.436Z,20448.00
2018-09-09T08:49:30.422Z,20352.00
2018-09-09T08:50:30.377Z,20544.00
2018-09-09T08:51:30.403Z,20992.00
2018-09-09T08:52:30.358Z,21504.00
2018-09-09T08:53:30.342Z,22112.00
2018-09-09T08:54:30.355Z,23264.00
2018-09-09T08:55:30.330Z,24096.00
2018-09-09T08:56:30.359Z,24928.00
2018-09-09T08:57:30.341Z,25728.00
2018-09-09T08:58:30.291Z,25632.00
2018-09-09T08:59:30.273Z,24800.00
2018-09-09T09:00:30.266Z,24160.00
2018-09-09T09:01:30.299Z,23104.00
2018-09-09T09:02:30.244Z,22496.00
2018-09-09T09:03:30.234Z,22496.00
2018-09-09T09:04:30.215Z,22784.00
2018-09-09T09:05:30.213Z,23040.00
2018-09-09T09:06:30.226Z,23232.00
2018-09-09T09:07:30.262Z,23776.00
2018-09-09T09:08:30.172Z,25536.00
2018-09-09T09:09:30.155Z,27616.00
2018-09-09T09:10:30.154Z,30752.00
2018-09-09T09:11:30.140Z,30592.00
2018-09-09T09:12:30.169Z,30912.00
2018-09-09T09:13:30.117Z,31136.00
2018-09-09T09:14:30.104Z,28576.00
2018-09-09T09:15:30.100Z,30240.00
2018-09-09T09:16:30.088Z,29440.00
2018-09-09T09:17:30.105Z,29792.00
2018-09-09T09:18:30.121Z,28448.00
2018-09-09T09:19:30.083Z,28064.00
2018-09-09T09:20:30.062Z,28128.00
2018-09-09T09:21:30.031Z,27840.00
2018-09-09T09:22:30.062Z,28128.00
2018-09-09T09:23:30.072Z,36768.00
2018-09-09T09:24:30.006Z,44736.00
2018-09-09T09:25:29.995Z,35392.00
2018-09-09T09:26:30.094Z,33344.00
2018-09-09T09:27:30.002Z,33504.00
2018-09-09T09:28:29.964Z,31328.00
2018-09-09T09:29:29.950Z,37920.00
2018-09-09T09:30:29.942Z,45792.00
2018-09-09T09:31:29.929Z,39072.00
2018-09-09T09:32:29.973Z,33184.00
2018-09-09T09:33:29.906Z,36384.00
2018-09-09T09:34:29.894Z,32064.00
2018-09-09T09:35:29.882Z,35232.00
2018-09-09T09:36:29.864Z,32768.00
2018-09-09T09:37:29.901Z,29856.00
2018-09-09T09:38:29.852Z,37184.00
2018-09-09T09:39:30.127Z,40768.00
2018-09-09T09:40:29.830Z,44544.00
2018-09-09T09:41:29.825Z,44928.00
2018-09-09T09:42:29.874Z,42432.00
2018-09-09T09:43:29.797Z,42336.00
2018-09-09T09:44:29.785Z,41664.00
2018-09-09T09:45:29.775Z,42720.00
2018-09-09T09:46:29.793Z,39456.00
2018-09-09T09:47:29.804Z,36352.00
2018-09-09T09:48:29.734Z,31488.00
2018-09-09T09:49:29.733Z,31648.00
2018-09-09T09:50:29.714Z,31168.00
2018-09-09T09:51:29.726Z,31776.00
2018-09-09T09:52:29.753Z,32224.00
2018-09-09T09:53:29.711Z,31712.00
2018-09-09T09:54:29.660Z,30816.00
2018-09-09T09:55:29.687Z,32576.00
2018-09-09T09:56:29.697Z,29472.00
2018-09-09T09:57:29.632Z,29216.00
2018-09-09T09:58:29.627Z,31936.00
2018-09-09T09:59:29.655Z,34144.00
2018-09-09T10:00:29.600Z,32224.00
2018-09-09T10:01:29.636Z,31552.00
2018-09-09T10:02:29.589Z,30496.00
2018-09-09T10:03:29.628Z,30976.00
2018-09-09T10:04:29.569Z,31936.00
2018-09-09T10:05:29.555Z,37184.00
2018-09-09T10:06:29.587Z,41600.00
2018-09-09T10:07:29.521Z,46528.00
2018-09-09T10:08:29.549Z,42528.00
2018-09-09T10:09:29.503Z,57440.00
2018-09-09T10:10:29.501Z,60704.00
2018-09-09T10:11:29.491Z,56864.00
2018-09-09T10:12:29.473Z,68608.00
2018-09-09T10:13:29.493Z,82848.00
2018-09-09T10:14:29.479Z,81792.00
2018-09-09T10:15:29.435Z,113632.00
2018-09-09T10:16:29.433Z,61120.00
2018-09-09T10:17:29.415Z,64224.00
2018-09-09T10:18:29.456Z,40384.00
2018-09-09T10:19:29.396Z,34592.00
2018-09-09T10:20:29.380Z,39040.00
2018-09-09T10:21:29.377Z,54240.00
2018-09-09T10:22:29.357Z,58304.00
2018-09-09T10:23:29.389Z,68192.00
2018-09-09T10:24:29.337Z,84416.00
2018-09-09T10:25:29.332Z,95200.00
2018-09-09T10:26:29.323Z,69760.00
2018-09-09T10:27:29.316Z,85856.00
2018-09-09T10:28:29.341Z,47808.00
2018-09-09T10:29:29.297Z,94912.00
2018-09-09T10:30:29.285Z,86176.00
2018-09-09T10:31:29.300Z,41088.00
2018-09-09T10:32:29.268Z,78912.00
2018-09-09T10:33:29.291Z,93984.00
2018-09-09T10:34:29.240Z,90016.00
2018-09-09T10:35:29.237Z,96160.00
2018-09-09T10:36:29.216Z,81600.00
2018-09-09T10:37:29.232Z,62048.00
2018-09-09T10:38:29.244Z,75328.00
2018-09-09T10:39:29.189Z,79584.00
2018-09-09T10:40:29.232Z,76896.00
2018-09-09T10:41:29.179Z,64064.00
2018-09-09T10:42:29.163Z,50816.00
2018-09-09T10:43:29.157Z,91840.00
2018-09-09T10:44:29.133Z,93856.00
2018-09-09T10:45:29.161Z,92480.00
2018-09-09T10:46:29.201Z,94496.00
2018-09-09T10:47:29.108Z,80128.00
2018-09-09T10:48:29.090Z,64384.00
2018-09-09T10:49:29.130Z,90336.00
2018-09-09T10:50:29.073Z,83936.00
2018-09-09T10:51:29.060Z,61760.00
2018-09-09T10:52:29.055Z,77696.00
2018-09-09T10:53:29.079Z,67328.00
2018-09-09T10:54:29.075Z,88832.00
2018-09-09T10:55:29.026Z,89728.00
2018-09-09T10:56:29.007Z,68864.00
2018-09-09T10:57:28.998Z,56064.00
2018-09-09T10:58:29.015Z,53024.00
2018-09-09T10:59:28.979Z,54720.00
2018-09-09T11:00:29.017Z,74816.00
2018-09-09T11:01:28.945Z,61600.00
2018-09-09T11:02:28.939Z,54400.00
2018-09-09T11:03:28.935Z,51616.00
2018-09-09T11:04:28.915Z,46016.00
2018-09-09T11:05:28.961Z,45504.00
2018-09-09T11:06:28.893Z,64064.00
2018-09-09T11:07:28.911Z,66912.00
2018-09-09T11:08:28.893Z,54112.00
2018-09-09T11:09:28.864Z,53312.00
2018-09-09T11:10:28.891Z,63456.00
2018-09-09T11:11:28.843Z,93280.00
2018-09-09T11:12:28.895Z,80768.00
2018-09-09T11:13:28.877Z,68256.00
2018-09-09T11:14:28.817Z,95040.00
2018-09-09T11:15:28.807Z,58272.00
2018-09-09T11:16:28.822Z,70336.00
2018-09-09T11:17:28.789Z,72896.00
2018-09-09T11:18:28.777Z,80064.00
2018-09-09T11:19:28.755Z,52864.00
2018-09-09T11:20:28.753Z,46272.00
2018-09-09T11:21:28.767Z,58208.00
2018-09-09T11:22:28.744Z,54848.00
2018-09-09T11:23:28.722Z,86080.00
2018-09-09T11:24:28.827Z,95968.00
2018-09-09T11:25:28.699Z,79936.00
2018-09-09T11:26:28.695Z,83264.00
2018-09-09T11:27:28.721Z,55616.00
2018-09-09T11:28:28.697Z,92064.00
2018-09-09T11:29:28.705Z,90016.00
2018-09-09T11:30:28.652Z,82112.00
2018-09-09T11:31:28.654Z,45312.00
2018-09-09T11:32:28.649Z,36288.00
2018-09-09T11:33:28.642Z,87648.00
2018-09-09T11:34:28.661Z,93408.00
2018-09-09T11:35:28.618Z,92864.00
2018-09-09T11:36:28.589Z,73248.00
2018-09-09T11:37:28.590Z,90112.00
2018-09-09T11:38:28.575Z,89248.00
2018-09-09T11:39:28.602Z,83008.00
2018-09-09T11:40:28.556Z,88128.00
2018-09-09T11:41:28.551Z,80864.00
2018-09-09T11:42:28.539Z,87968.00
2018-09-09T11:43:28.530Z,96928.00
2018-09-09T11:44:28.547Z,22336.00
2018-09-09T11:45:28.508Z,22880.00
2018-09-09T11:46:28.510Z,76608.00
2018-09-09T11:47:28.486Z,21952.00
2018-09-09T11:48:28.470Z,22592.00
2018-09-09T11:49:28.511Z,63232.00
2018-09-09T11:50:28.449Z,94208.00
2018-09-09T11:51:28.439Z,84320.00
2018-09-09T11:52:28.457Z,46656.00
2018-09-09T11:53:28.421Z,23776.00
2018-09-09T11:54:28.450Z,47712.00
2018-09-09T11:55:28.402Z,23744.00
2018-09-09T11:56:28.426Z,94176.00
2018-09-09T11:57:28.377Z,55008.00
2018-09-09T11:58:28.368Z,59776.00
2018-09-09T11:59:28.364Z,69248.00
2018-09-09T12:00:28.386Z,87968.00
2018-09-09T12:01:28.368Z,93408.00
2018-09-09T12:02:28.345Z,62496.00
2018-09-09T12:03:28.309Z,27168.00
2018-09-09T12:04:28.315Z,26656.00
2018-09-09T12:05:28.281Z,31584.00
2018-09-09T12:06:28.320Z,45888.00
2018-09-09T12:07:28.301Z,35136.00
2018-09-09T12:08:28.253Z,31872.00
2018-09-09T12:09:28.279Z,44864.00
2018-09-09T12:10:28.231Z,71456.00
2018-09-09T12:11:28.224Z,42112.00
2018-09-09T12:12:28.215Z,48416.00
2018-09-09T12:13:28.203Z,51008.00
2018-09-09T12:14:28.231Z,53376.00
2018-09-09T12:15:28.175Z,51776.00
2018-09-09T12:16:28.165Z,47360.00
2018-09-09T12:17:28.190Z,52736.00
2018-09-09T12:18:28.155Z,59584.00
2018-09-09T12:19:28.164Z,56896.00
2018-09-09T12:20:28.162Z,51584.00
2018-09-09T12:21:28.120Z,48896.00